首页
METAR-TAF:

METAR-TAF

机场 :

那拉提瓦, 泰国

纬度: 6-31-12N, 经度: 101-44-36E, 海拔: 5米

当前天气观测

该预报发布于55分钟前的04:00 UTC
风速8节,风向东转东北,在北转东北之间变化
温度 33°C
湿度 63%
气压 1009 hPa
能见度10公里或以上
少量云层高于2200英尺

METAR: VTSC 230400Z 06008KT 030V090 9999 FEW022 33/25 Q1009 NOSIG

时间: 11:55 (04:55 UTC)

预报

该预报发布于5小时和55分钟前的23:00 UTC
预报有效从23日的 00点(UTC)到 23日的 24点(UTC)
风速3节,风向南转西南
能见度10公里或以上
少量云层高于2000英尺
成为
从 23日的 03点(UTC)到 23日的 05点(UTC)
风速10节,风向东转东北
成为
从 23日的 15点(UTC)到 23日的 17点(UTC)
风速3节,风向南转西南

TAF: VTSC 222300Z 2300/2324 20003KT 9999 FEW020 BECMG 2303/2305 07010KT BECMG 2315/2317 20003KT

超过4000个机场的气象观测和天气预报(METAR&TAF报告)。

可查询的气象台以黄色和红色小点在地图上表示。

将鼠标移到小点上方,可查看气象台名称。

然后点击查看天气观测和预报。

如需切换地图:点击带黑十字的绿色按钮放大地图;点击带横线的绿色按钮缩小地图;或者点击绿色箭头查看邻近地区的地图。


METAR-TAF: